createdAt,value
2018-10-06T00:00:46.409Z,11.50
2018-10-06T00:03:15.127Z,11.50
2018-10-06T00:05:43.830Z,11.50
2018-10-06T00:08:12.550Z,11.50
2018-10-06T00:10:41.250Z,11.50
2018-10-06T00:13:09.973Z,11.50
2018-10-06T00:15:38.737Z,11.40
2018-10-06T00:18:07.397Z,11.40
2018-10-06T00:20:56.226Z,11.40
2018-10-06T00:23:24.962Z,11.40
2018-10-06T00:25:53.665Z,11.40
2018-10-06T00:28:22.381Z,11.50
2018-10-06T00:30:51.086Z,11.50
2018-10-06T00:33:19.806Z,11.50
2018-10-06T00:35:48.537Z,11.50
2018-10-06T00:38:17.264Z,11.40
2018-10-06T00:40:45.966Z,11.40
2018-10-06T00:43:14.693Z,11.40
2018-10-06T00:45:43.385Z,11.40
2018-10-06T00:48:12.109Z,11.40
2018-10-06T00:50:40.818Z,11.40
2018-10-06T00:53:09.541Z,11.40
2018-10-06T00:55:38.243Z,11.40
2018-10-06T00:58:06.958Z,11.30
2018-10-06T01:00:35.677Z,11.30
2018-10-06T01:03:04.394Z,11.30
2018-10-06T01:05:33.102Z,11.30
2018-10-06T01:08:01.818Z,11.30
2018-10-06T01:10:30.537Z,11.30
2018-10-06T01:12:59.274Z,11.30
2018-10-06T01:15:27.993Z,11.30
2018-10-06T01:17:56.718Z,11.30
2018-10-06T01:20:25.440Z,11.20
2018-10-06T01:22:54.168Z,11.20
2018-10-06T01:25:22.858Z,11.20
2018-10-06T01:27:51.569Z,11.20
2018-10-06T01:30:30.062Z,11.20
2018-10-06T01:32:58.845Z,11.20
2018-10-06T01:35:27.549Z,11.10
2018-10-06T01:37:56.318Z,11.10
2018-10-06T01:40:25.026Z,11.10
2018-10-06T01:42:53.742Z,11.10
2018-10-06T01:45:22.450Z,11.00
2018-10-06T01:47:51.165Z,11.00
2018-10-06T01:50:19.862Z,11.00
2018-10-06T01:52:48.586Z,11.00
2018-10-06T01:55:17.277Z,11.00
2018-10-06T01:57:45.998Z,11.00
2018-10-06T02:00:14.693Z,11.00
2018-10-06T02:02:43.411Z,11.00
2018-10-06T02:05:12.209Z,11.00
2018-10-06T02:07:40.946Z,10.90
2018-10-06T02:10:09.662Z,10.90
2018-10-06T02:12:38.405Z,10.90
2018-10-06T02:15:07.338Z,10.90
2018-10-06T02:17:41.674Z,10.90
2018-10-06T02:20:15.994Z,10.80
2018-10-06T02:22:50.298Z,10.80
2018-10-06T02:25:24.590Z,10.80
2018-10-06T02:27:57.117Z,10.80
2018-10-06T02:30:25.826Z,10.80
2018-10-06T02:33:16.749Z,10.80
2018-10-06T02:35:45.446Z,10.80
2018-10-06T02:38:14.178Z,10.80
2018-10-06T02:40:42.877Z,10.80
2018-10-06T02:43:11.602Z,10.80
2018-10-06T02:45:40.341Z,10.80
2018-10-06T02:48:09.062Z,10.80
2018-10-06T02:50:37.790Z,10.70
2018-10-06T02:53:06.501Z,10.70
2018-10-06T02:55:35.209Z,10.70
2018-10-06T02:58:03.929Z,10.70
2018-10-06T03:00:32.634Z,10.70
2018-10-06T03:03:01.398Z,10.70
2018-10-06T03:05:30.094Z,10.70
2018-10-06T03:07:58.805Z,10.70
2018-10-06T03:10:27.702Z,10.70
2018-10-06T03:12:56.422Z,10.70
2018-10-06T03:15:25.130Z,10.70
2018-10-06T03:17:53.881Z,10.60
2018-10-06T03:20:22.597Z,10.60
2018-10-06T03:22:51.401Z,10.60
2018-10-06T03:25:20.122Z,10.50
2018-10-06T03:27:48.827Z,10.50
2018-10-06T03:30:17.537Z,10.50
2018-10-06T03:32:46.240Z,10.50
2018-10-06T03:35:14.962Z,10.40
2018-10-06T03:37:43.658Z,10.40
2018-10-06T03:40:12.395Z,10.30
2018-10-06T03:42:41.101Z,10.20
2018-10-06T03:45:09.910Z,10.20
2018-10-06T03:47:38.635Z,10.20
2018-10-06T03:50:07.369Z,10.20
2018-10-06T03:52:36.069Z,10.10
2018-10-06T03:55:04.814Z,10.10
2018-10-06T03:57:33.506Z,10.10
2018-10-06T04:00:02.232Z,10.10
2018-10-06T04:02:30.922Z,10.00
2018-10-06T04:04:59.640Z,10.00
2018-10-06T04:07:28.337Z,9.90
2018-10-06T04:09:57.074Z,9.90
2018-10-06T04:12:25.761Z,9.90
2018-10-06T04:14:54.506Z,9.80
2018-10-06T04:17:23.202Z,9.70
2018-10-06T04:19:51.917Z,9.60
2018-10-06T04:22:20.609Z,9.60
2018-10-06T04:24:49.337Z,9.50
2018-10-06T04:27:18.071Z,9.40
2018-10-06T04:29:46.758Z,9.40
2018-10-06T04:32:15.455Z,9.50
2018-10-06T04:34:44.182Z,9.40
2018-10-06T04:37:12.898Z,9.50
2018-10-06T04:39:41.622Z,9.50
2018-10-06T04:42:10.331Z,9.50
2018-10-06T04:44:39.055Z,9.40
2018-10-06T04:47:07.758Z,9.40
2018-10-06T04:49:36.475Z,9.40
2018-10-06T04:52:05.295Z,9.40
2018-10-06T04:54:34.006Z,9.50
2018-10-06T04:57:02.714Z,9.50
2018-10-06T04:59:31.465Z,9.50
2018-10-06T05:02:00.350Z,9.50
2018-10-06T05:04:29.069Z,9.50
2018-10-06T05:06:57.769Z,9.50
2018-10-06T05:09:26.503Z,9.60
2018-10-06T05:11:55.210Z,9.60
2018-10-06T05:14:23.958Z,9.60
2018-10-06T05:16:52.682Z,9.60
2018-10-06T05:19:21.393Z,9.70
2018-10-06T05:21:50.081Z,9.60
2018-10-06T05:24:18.801Z,9.60
2018-10-06T05:26:47.513Z,9.70
2018-10-06T05:29:16.215Z,9.60
2018-10-06T05:31:44.929Z,9.60
2018-10-06T05:34:13.667Z,9.60
2018-10-06T05:36:42.378Z,9.70
2018-10-06T05:39:11.834Z,9.70
2018-10-06T05:41:40.593Z,9.70
2018-10-06T05:44:09.302Z,9.70
2018-10-06T05:46:38.123Z,9.80
2018-10-06T05:49:06.713Z,9.80
2018-10-06T05:51:35.434Z,9.80
2018-10-06T05:54:04.134Z,9.80
2018-10-06T05:56:32.849Z,9.80
2018-10-06T05:59:01.621Z,9.90
2018-10-06T06:01:30.274Z,9.90
2018-10-06T06:03:58.966Z,10.00
2018-10-06T06:06:27.686Z,10.00
2018-10-06T06:11:47.527Z,10.10
2018-10-06T06:14:16.249Z,10.10
2018-10-06T06:16:44.982Z,10.20
2018-10-06T06:19:13.694Z,10.30
2018-10-06T06:21:42.417Z,10.30
2018-10-06T06:24:11.114Z,10.30
2018-10-06T06:26:39.831Z,10.40
2018-10-06T06:29:08.529Z,10.50
2018-10-06T06:31:37.262Z,10.50
2018-10-06T06:36:57.117Z,10.70
2018-10-06T06:39:25.818Z,10.70
2018-10-06T06:41:54.541Z,10.70
2018-10-06T06:44:23.463Z,10.80
2018-10-06T06:46:52.029Z,10.80
2018-10-06T06:49:20.729Z,10.80
2018-10-06T06:51:59.321Z,10.80
2018-10-06T06:54:28.022Z,10.80
2018-10-06T06:56:56.734Z,10.80
2018-10-06T06:59:25.429Z,10.80
2018-10-06T07:01:54.150Z,10.80
2018-10-06T07:04:22.865Z,10.90
2018-10-06T07:06:51.581Z,10.90
2018-10-06T07:09:20.386Z,11.00
2018-10-06T07:11:49.105Z,11.00
2018-10-06T07:14:17.825Z,11.00
2018-10-06T07:16:46.567Z,11.10
2018-10-06T07:19:15.270Z,11.10
2018-10-06T07:21:43.997Z,11.20
2018-10-06T07:24:12.826Z,11.30
2018-10-06T07:26:41.533Z,11.40
2018-10-06T07:32:05.671Z,11.50
2018-10-06T07:34:34.374Z,11.60
2018-10-06T07:37:03.098Z,11.70
2018-10-06T07:45:18.565Z,12.00
2018-10-06T07:47:47.373Z,12.10
2018-10-06T07:50:16.073Z,12.20
2018-10-06T07:52:44.806Z,12.20
2018-10-06T07:55:13.505Z,12.30
2018-10-06T07:58:02.538Z,12.40
2018-10-06T08:00:31.262Z,12.50
2018-10-06T08:11:44.577Z,12.70
2018-10-06T08:14:17.277Z,12.80
2018-10-06T08:16:46.001Z,12.80
2018-10-06T08:19:14.717Z,12.90
2018-10-06T08:21:43.465Z,12.90
2018-10-06T08:24:12.227Z,13.00
2018-10-06T08:26:41.067Z,13.00
2018-10-06T08:29:09.770Z,13.10
2018-10-06T08:31:38.495Z,13.20
2018-10-06T08:34:14.836Z,13.20
2018-10-06T08:36:43.642Z,13.30
2018-10-06T08:39:12.340Z,13.40
2018-10-06T08:41:41.070Z,13.40
2018-10-06T08:44:09.782Z,13.50
2018-10-06T08:46:38.514Z,13.60
2018-10-06T08:49:08.276Z,13.60
2018-10-06T08:51:37.005Z,13.70
2018-10-06T08:54:05.705Z,13.80
2018-10-06T08:56:34.448Z,13.80
2018-10-06T08:59:03.166Z,13.90
2018-10-06T09:01:37.891Z,14.00
2018-10-06T09:04:06.949Z,14.10
2018-10-06T09:09:35.734Z,14.30
2018-10-06T09:12:10.382Z,14.40
2018-10-06T09:14:39.142Z,14.60
2018-10-06T09:17:08.090Z,14.70
2018-10-06T09:19:36.821Z,14.80
2018-10-06T09:22:20.033Z,14.90
2018-10-06T09:24:48.781Z,15.00
2018-10-06T09:30:15.378Z,15.30
2018-10-06T09:32:50.021Z,15.40
2018-10-06T09:35:18.745Z,15.50
2018-10-06T09:37:47.450Z,15.60
2018-10-06T09:40:16.171Z,15.60
2018-10-06T09:42:45.084Z,15.70
2018-10-06T09:45:14.022Z,15.80
2018-10-06T09:47:49.477Z,15.90
2018-10-06T09:50:18.179Z,16.00
2018-10-06T09:52:47.034Z,16.10
2018-10-06T09:55:15.738Z,16.20
2018-10-06T09:57:44.486Z,16.30
2018-10-06T10:00:13.194Z,16.40
2018-10-06T10:02:47.446Z,16.50
2018-10-06T10:05:26.433Z,16.60
2018-10-06T10:07:55.146Z,16.70
2018-10-06T10:10:23.855Z,16.80
2018-10-06T10:12:52.582Z,16.80
2018-10-06T10:15:21.339Z,16.90
2018-10-06T10:17:50.180Z,17.00
2018-10-06T10:20:18.722Z,17.10
2018-10-06T10:22:47.953Z,17.20
2018-10-06T10:25:16.647Z,17.30
2018-10-06T10:27:45.406Z,17.40
2018-10-06T10:30:14.102Z,17.50
2018-10-06T10:32:42.806Z,17.50
2018-10-06T10:35:11.557Z,17.60
2018-10-06T10:37:42.355Z,17.60
2018-10-06T10:40:11.077Z,17.70
2018-10-06T10:42:45.052Z,17.70
2018-10-06T10:45:13.919Z,17.80
2018-10-06T10:50:46.360Z,17.90
2018-10-06T10:53:15.054Z,18.10
2018-10-06T10:55:43.792Z,18.20
2018-10-06T10:58:13.514Z,18.30
2018-10-06T11:00:42.236Z,18.30
2018-10-06T11:03:10.954Z,18.40
2018-10-06T11:05:39.658Z,18.40
2018-10-06T11:08:08.390Z,18.50
2018-10-06T11:10:37.110Z,18.60
2018-10-06T11:13:05.965Z,18.70
2018-10-06T11:15:34.673Z,18.70
2018-10-06T11:18:03.434Z,18.80
2018-10-06T11:20:32.146Z,18.90
2018-10-06T11:23:00.870Z,19.00
2018-10-06T11:25:29.633Z,19.10
2018-10-06T11:27:58.345Z,19.10
2018-10-06T11:30:27.269Z,19.00
2018-10-06T11:32:56.017Z,19.00
2018-10-06T11:35:24.721Z,19.00
2018-10-06T11:37:53.610Z,19.10
2018-10-06T11:40:22.212Z,19.20
2018-10-06T11:42:51.006Z,19.40
2018-10-06T11:45:19.697Z,19.50
2018-10-06T11:47:48.427Z,19.60
2018-10-06T11:50:17.199Z,19.80
2018-10-06T11:52:45.859Z,20.00
2018-10-06T11:55:14.571Z,20.20
2018-10-06T11:57:43.409Z,20.50
2018-10-06T12:00:12.486Z,20.70
2018-10-06T12:02:41.134Z,20.90
2018-10-06T12:05:09.848Z,21.00
2018-10-06T12:07:38.845Z,21.10
2018-10-06T12:10:08.334Z,21.20
2018-10-06T12:12:37.218Z,21.20
2018-10-06T12:15:06.140Z,21.30
2018-10-06T12:17:34.865Z,21.50
2018-10-06T12:20:03.562Z,21.50
2018-10-06T12:22:32.289Z,21.50
2018-10-06T12:25:01.021Z,21.60
2018-10-06T12:27:29.769Z,21.60
2018-10-06T12:29:58.470Z,21.70
2018-10-06T12:32:27.353Z,21.60
2018-10-06T12:34:56.208Z,21.50
2018-10-06T12:37:24.792Z,21.50
2018-10-06T12:39:53.489Z,21.60
2018-10-06T12:42:22.393Z,21.70
2018-10-06T12:44:51.098Z,21.70
2018-10-06T12:47:19.818Z,21.80
2018-10-06T12:49:48.620Z,21.80
2018-10-06T12:52:17.329Z,21.70
2018-10-06T12:54:46.050Z,21.60
2018-10-06T12:57:14.794Z,21.60
2018-10-06T12:59:43.497Z,21.70
2018-10-06T13:02:12.222Z,21.70
2018-10-06T13:04:40.930Z,21.70
2018-10-06T13:07:09.650Z,21.70
2018-10-06T13:09:38.357Z,21.70
2018-10-06T13:12:07.079Z,21.70
2018-10-06T13:14:35.790Z,21.70
2018-10-06T13:17:04.526Z,21.60
2018-10-06T13:19:33.234Z,21.50
2018-10-06T13:22:01.987Z,21.50
2018-10-06T13:24:30.694Z,21.50
2018-10-06T13:26:59.428Z,21.50
2018-10-06T13:29:28.142Z,21.50
2018-10-06T13:31:56.896Z,21.50
2018-10-06T13:34:30.757Z,21.50
2018-10-06T13:36:59.493Z,21.50
2018-10-06T13:39:28.201Z,21.60
2018-10-06T13:41:56.927Z,21.50
2018-10-06T13:44:25.743Z,21.60
2018-10-06T13:46:54.546Z,21.60
2018-10-06T13:49:23.178Z,21.70
2018-10-06T13:51:51.914Z,21.80
2018-10-06T13:54:20.624Z,21.80
2018-10-06T13:56:49.893Z,21.90
2018-10-06T13:59:18.589Z,21.90
2018-10-06T14:01:47.318Z,21.90
2018-10-06T14:04:16.026Z,21.90
2018-10-06T14:06:44.769Z,21.90
2018-10-06T14:09:13.469Z,22.00
2018-10-06T14:11:42.198Z,22.00
2018-10-06T14:14:10.908Z,22.00
2018-10-06T14:16:39.630Z,22.10
2018-10-06T14:19:08.342Z,22.10
2018-10-06T14:21:37.061Z,22.10
2018-10-06T14:24:05.786Z,22.10
2018-10-06T14:26:34.599Z,22.10
2018-10-06T14:29:03.210Z,22.10
2018-10-06T14:34:23.261Z,22.00
2018-10-06T14:36:51.989Z,21.80
2018-10-06T14:39:20.686Z,21.70
2018-10-06T14:41:49.406Z,21.60
2018-10-06T14:44:20.181Z,21.50
2018-10-06T14:46:48.869Z,21.40
2018-10-06T14:49:17.611Z,21.30
2018-10-06T14:51:46.338Z,21.20
2018-10-06T14:54:15.091Z,21.20
2018-10-06T14:56:44.239Z,21.20
2018-10-06T14:59:12.990Z,21.20
2018-10-06T15:04:50.614Z,21.30
2018-10-06T15:07:19.378Z,21.30
2018-10-06T15:09:48.094Z,21.30
2018-10-06T15:12:16.829Z,21.30
2018-10-06T15:14:45.553Z,21.30
2018-10-06T15:17:14.314Z,21.30
2018-10-06T15:19:43.022Z,21.20
2018-10-06T15:22:11.755Z,21.20
2018-10-06T15:24:40.488Z,21.10
2018-10-06T15:27:09.275Z,21.10
2018-10-06T15:29:38.022Z,21.10
2018-10-06T15:32:06.725Z,21.00
2018-10-06T15:34:35.493Z,20.90
2018-10-06T15:37:04.198Z,20.90
2018-10-06T15:39:32.958Z,20.90
2018-10-06T15:42:15.007Z,20.80
2018-10-06T15:44:44.810Z,20.70
2018-10-06T15:47:13.541Z,20.60
2018-10-06T15:49:42.265Z,20.60
2018-10-06T15:52:10.982Z,20.50
2018-10-06T15:54:39.734Z,20.40
2018-10-06T15:57:08.462Z,20.40
2018-10-06T15:59:37.184Z,20.30
2018-10-06T16:02:05.995Z,20.20
2018-10-06T16:04:37.869Z,20.20
2018-10-06T16:07:12.779Z,20.10
2018-10-06T16:09:41.500Z,20.00
2018-10-06T16:12:10.213Z,20.00
2018-10-06T16:14:38.934Z,19.90
2018-10-06T16:17:11.710Z,19.90
2018-10-06T16:19:40.426Z,19.80
2018-10-06T16:22:09.170Z,19.80
2018-10-06T16:24:37.894Z,19.70
2018-10-06T16:27:06.598Z,19.60
2018-10-06T16:29:35.363Z,19.60
2018-10-06T16:32:04.070Z,19.50
2018-10-06T16:34:32.804Z,19.50
2018-10-06T16:37:03.608Z,19.40
2018-10-06T16:39:32.334Z,19.40
2018-10-06T16:42:01.053Z,19.30
2018-10-06T16:44:29.765Z,19.30
2018-10-06T16:46:58.482Z,19.30
2018-10-06T16:49:27.193Z,19.20
2018-10-06T16:51:55.921Z,19.20
2018-10-06T16:54:24.715Z,19.20
2018-10-06T16:56:53.434Z,19.10
2018-10-06T16:59:22.157Z,19.10
2018-10-06T17:01:50.927Z,19.00
2018-10-06T17:04:19.602Z,19.00
2018-10-06T17:06:48.326Z,18.90
2018-10-06T17:09:17.070Z,18.90
2018-10-06T17:11:45.774Z,18.90
2018-10-06T17:14:25.529Z,18.80
2018-10-06T17:16:54.239Z,18.80
2018-10-06T17:19:22.973Z,18.70
2018-10-06T17:21:51.674Z,18.60
2018-10-06T17:27:14.605Z,18.60
2018-10-06T17:29:43.328Z,18.50
2018-10-06T17:32:12.026Z,18.40
2018-10-06T17:34:40.759Z,18.40
2018-10-06T17:37:09.457Z,18.30
2018-10-06T17:39:38.597Z,18.20
2018-10-06T17:42:07.349Z,18.20
2018-10-06T17:44:36.077Z,18.20
2018-10-06T17:47:04.794Z,18.10
2018-10-06T17:49:33.518Z,18.10
2018-10-06T17:52:02.238Z,18.10
2018-10-06T17:54:30.981Z,18.00
2018-10-06T17:57:12.238Z,18.00
2018-10-06T17:59:40.957Z,18.00
2018-10-06T18:02:09.661Z,17.90
2018-10-06T18:04:38.377Z,17.90
2018-10-06T18:07:07.101Z,17.90
2018-10-06T18:09:35.826Z,17.80
2018-10-06T18:12:04.562Z,17.80
2018-10-06T18:14:33.296Z,17.80
2018-10-06T18:17:01.993Z,17.70
2018-10-06T18:19:30.714Z,17.70
2018-10-06T18:21:59.687Z,17.60
2018-10-06T18:24:46.396Z,17.60
2018-10-06T18:27:15.164Z,17.60
2018-10-06T18:29:44.427Z,17.50
2018-10-06T18:32:13.229Z,17.50
2018-10-06T18:34:41.993Z,17.50
2018-10-06T18:37:10.794Z,17.50
2018-10-06T18:39:39.406Z,17.40
2018-10-06T18:42:08.158Z,17.40
2018-10-06T18:44:37.045Z,17.40
2018-10-06T18:47:05.874Z,17.40
2018-10-06T18:49:34.570Z,17.40
2018-10-06T18:52:03.298Z,17.40
2018-10-06T18:54:32.006Z,17.40
2018-10-06T18:57:00.729Z,17.40
2018-10-06T18:59:29.433Z,17.40
2018-10-06T19:01:58.217Z,17.40
2018-10-06T19:04:45.963Z,17.40
2018-10-06T19:07:14.713Z,17.30
2018-10-06T19:09:43.418Z,17.30
2018-10-06T19:12:12.135Z,17.30
2018-10-06T19:14:40.833Z,17.30
2018-10-06T19:17:09.629Z,17.20
2018-10-06T19:19:38.401Z,17.20
2018-10-06T19:22:07.142Z,17.10
2018-10-06T19:24:35.842Z,17.10
2018-10-06T19:27:04.621Z,17.10
2018-10-06T19:29:33.356Z,17.10
2018-10-06T19:32:02.075Z,17.10
2018-10-06T19:34:30.813Z,17.00
2018-10-06T19:36:59.663Z,17.00
2018-10-06T19:39:28.329Z,17.00
2018-10-06T19:41:57.074Z,17.00
2018-10-06T19:44:25.778Z,16.90
2018-10-06T19:46:54.650Z,16.90
2018-10-06T19:49:23.368Z,16.90
2018-10-06T19:51:52.221Z,16.90
2018-10-06T19:54:21.848Z,16.90
2018-10-06T19:56:50.737Z,16.90
2018-10-06T19:59:19.449Z,16.90
2018-10-06T20:01:48.170Z,16.90
2018-10-06T20:04:16.907Z,16.90
2018-10-06T20:06:45.626Z,16.80
2018-10-06T20:09:14.326Z,16.80
2018-10-06T20:11:43.050Z,16.80
2018-10-06T20:14:21.053Z,16.80
2018-10-06T20:16:59.977Z,16.80
2018-10-06T20:19:28.729Z,16.80
2018-10-06T20:21:57.469Z,16.80
2018-10-06T20:24:26.354Z,16.80
2018-10-06T20:26:55.083Z,16.70
2018-10-06T20:29:23.725Z,16.70
2018-10-06T20:31:52.445Z,16.70
2018-10-06T20:34:21.342Z,16.70
2018-10-06T20:36:50.074Z,16.70
2018-10-06T20:39:18.793Z,16.70
2018-10-06T20:41:47.518Z,16.70
2018-10-06T20:44:16.241Z,16.70
2018-10-06T20:46:45.026Z,16.70
2018-10-06T20:49:13.729Z,16.60
2018-10-06T20:51:42.474Z,16.60
2018-10-06T20:54:11.195Z,16.60
2018-10-06T20:56:39.914Z,16.60
2018-10-06T20:59:08.614Z,16.50
2018-10-06T21:01:37.337Z,16.50
2018-10-06T21:04:06.081Z,16.50
2018-10-06T21:06:34.777Z,16.40
2018-10-06T21:09:04.282Z,16.40
2018-10-06T21:11:32.986Z,16.40
2018-10-06T21:14:01.717Z,16.40
2018-10-06T21:16:30.426Z,16.30
2018-10-06T21:18:59.154Z,16.30
2018-10-06T21:21:27.866Z,16.30
2018-10-06T21:23:56.586Z,16.30
2018-10-06T21:26:25.465Z,16.30
2018-10-06T21:28:54.244Z,16.30
2018-10-06T21:31:23.039Z,16.20
2018-10-06T21:33:51.855Z,16.20
2018-10-06T21:36:20.686Z,16.20
2018-10-06T21:38:49.565Z,16.20
2018-10-06T21:41:18.418Z,16.10
2018-10-06T21:43:47.252Z,16.10
2018-10-06T21:46:16.245Z,16.10
2018-10-06T21:48:45.082Z,16.10
2018-10-06T21:51:13.785Z,16.10
2018-10-06T21:53:42.557Z,16.00
2018-10-06T21:56:11.275Z,16.00
2018-10-06T21:58:40.118Z,16.00
2018-10-06T22:01:11.442Z,15.90
2018-10-06T22:03:40.762Z,15.90
2018-10-06T22:06:09.584Z,15.90
2018-10-06T22:08:38.646Z,15.90
2018-10-06T22:11:07.350Z,15.90
2018-10-06T22:13:36.073Z,15.90
2018-10-06T22:16:04.766Z,15.90
2018-10-06T22:18:33.517Z,15.90
2018-10-06T22:21:02.218Z,15.90
2018-10-06T22:23:30.941Z,15.80
2018-10-06T22:26:00.003Z,15.80
2018-10-06T22:28:30.095Z,15.80
2018-10-06T22:30:58.809Z,15.70
2018-10-06T22:33:27.537Z,15.60
2018-10-06T22:35:56.240Z,15.60
2018-10-06T22:38:24.954Z,15.50
2018-10-06T22:40:53.758Z,15.50
2018-10-06T22:43:22.538Z,15.40
2018-10-06T22:45:51.310Z,15.40
2018-10-06T22:48:20.098Z,15.40
2018-10-06T22:50:48.797Z,15.30
2018-10-06T22:53:17.518Z,15.30
2018-10-06T22:55:46.221Z,15.20
2018-10-06T22:58:14.942Z,15.20
2018-10-06T23:00:43.646Z,15.20
2018-10-06T23:03:12.385Z,15.10
2018-10-06T23:05:41.066Z,15.10
2018-10-06T23:08:09.786Z,15.00
2018-10-06T23:10:38.529Z,15.00
2018-10-06T23:13:07.222Z,15.00
2018-10-06T23:15:35.945Z,14.90
2018-10-06T23:18:04.648Z,14.90
2018-10-06T23:20:33.458Z,14.90
2018-10-06T23:23:02.166Z,14.80
2018-10-06T23:25:30.894Z,14.80
2018-10-06T23:27:59.598Z,14.80
2018-10-06T23:30:28.326Z,14.70
2018-10-06T23:32:57.043Z,14.70
2018-10-06T23:35:25.769Z,14.70
2018-10-06T23:37:54.482Z,14.60
2018-10-06T23:40:23.194Z,14.60
2018-10-06T23:42:51.891Z,14.60
2018-10-06T23:45:20.609Z,14.60
2018-10-06T23:47:49.314Z,14.50
2018-10-06T23:50:18.034Z,14.50
2018-10-06T23:52:46.729Z,14.50
2018-10-06T23:55:15.458Z,14.50
2018-10-06T23:57:44.162Z,14.40
